YHN weather

Hornepayne Municipal Airport
Hornepayne, Ontario, Canada

Public forecast

Using degrees Celsius for public forecast. Weather courtesy of forecast.io.

Closest aviation weather report (METAR) to Hornepayne Municipal Airport

Closest report is Marathon Airport, 67.8 nm (125.5 km) WSW. Retrieved 2020/05/25 20:00 UTC (15 minutes ago):

CYSP 252000Z 24003KT 190V290 3SM BR BKN004 BKN005 OVC006 16/14 A2994 RMK FG2SF3SF2SC1 SLP147 DENSITY ALT 1500FT

Closest aviation forecast (TAF) to Hornepayne Municipal Airport

Forecast is more than 6 hours old.

Closest forecast is Marathon Airport, 67.8 nm (125.5 km) WSW. Retrieved 2020/05/25 14:00 UTC (6 hours ago):

TAF CYSP 251333Z 2514/2521 VRB03KT 1/4SM FG VV001 TEMPO 2514/2518 6SM BR OVC006 FM251800 22005KT P6SM SCT006 BKN060 TEMPO 2518/2521 5SM BR BKN006 OVC060 RMK NXT FCST WILL BE ISSUED AT 261345Z